Overview Statistics Trail Chart Weather Telemetry Raw packets
 

This is the latest recevied weather packets stored in our database for station/object Ostrach. If no packets are shown the sender has not sent any weather packets the latest 10 day(s).

<< 3 4 5 6 7 8 9 >>
Time Temp. Humidity Pressure Rain* Wind** Luminosity Snow
1788490930 15° C 82% 1018.9 hPa 0 mm - - -
1788489130 14.44° C 82% 1018.9 hPa 0 mm - - -
1788487330 13.89° C 83% 1019.1 hPa 0 mm - - -
1788485530 13.33° C 85% 1019.3 hPa 0 mm - - -
1788483730 13.33° C 86% 1019.7 hPa 0 mm - - -
1788481931 13.33° C 85% 1019.8 hPa 0 mm - - -
1788480131 13.89° C 84% 1019.8 hPa 0 mm - - -
1788478331 14.44° C 83% 1019.9 hPa 0 mm - - -
1788476531 14.44° C 81% 1020.1 hPa 0 mm - - -
1788474731 15° C 80% 1020.1 hPa 0 mm - - -
1788472931 15° C 82% 1020.2 hPa 0 mm - - -
1788471131 15.56° C 80% 1020 hPa 0 mm - - -
1788469331 16.11° C 77% 1019.9 hPa 0 mm - - -
1788467531 16.67° C 75% 1019.9 hPa 0 mm - - -
1788465730 16.67° C 76% 1019.8 hPa 0 mm - - -
1788463931 17.22° C 73% 1019.5 hPa 0 mm - - -
1788462131 18.89° C 70% 1019.4 hPa 0 mm - - -
1788460330 20° C 66% 1019.2 hPa 0 mm - - -
1788458531 21.67° C 63% 1018.7 hPa 0 mm - - -
1788456731 23.33° C 57% 1018.8 hPa 0 mm - - -
1788454941 23.89° C 48% 1018.6 hPa 0 mm - - -
1788453130 25° C 47% 1018.6 hPa 0 mm - - -
1788451331 25° C 46% 1018.8 hPa 0 mm - - -
1788449530 25.56° C 44% 1018.8 hPa 0 mm - - -
1788447730 26.11° C 44% 1018.8 hPa 0 mm - - -

* Rain since midnight (hover to see other rain measurements)
** Current wind speed in m/s (hover to see current wind gust speed)